KLM912 LEMD-LFMN
Flight info
| Callsign | KLM912 |
|---|---|
| Flight time | 1h 26m |
| Altitude | 38000 |
| Route | PINAR DCT SEGRE DCT BRITO DCT PISUS DCT PONEN DCT SEROX DCT VILAR DCT KARES DCT BISES DCT BCN DCT FEVIK DCT DALIN DCT PIVUS DCT DIBER DCT SOSUR DCT SOFFY DCT MRM DCT ABLAK |
| Aircraft | B738/M-SDE2E3FGHIRWXY/LB1 |
Departure
| Time | 2026-05-08 06:32 |
|---|---|
| Airport | Adolfo Suárez Madrid–Barajas Airport (LEMD) |
Arrival
| Time | 2026-05-08 07:58 |
|---|---|
| Airport | Nice-Côte d'Azur Airport (LFMN) |
| Time | Latitude | Longitude | Altitude | Speed | Heading |
|---|---|---|---|---|---|
| 2026-05-08 06:12 | 40.49601 | -3.56891 | 1980 ft | 0 kts | 90° |
| 2026-05-08 06:25 | 40.49601 | -3.56909 | 1980 ft | 4 kts | 90° |
| 2026-05-08 06:25 | 40.49601 | -3.56944 | 1980 ft | 4 kts | 90° |
| 2026-05-08 06:25 | 40.49601 | -3.56966 | 1982 ft | 2 kts | 90° |
| 2026-05-08 06:26 | 40.49604 | -3.56996 | 1980 ft | 4 kts | 130° |
| 2026-05-08 06:26 | 40.49625 | -3.57010 | 1980 ft | 4 kts | 178° |
| 2026-05-08 06:26 | 40.49637 | -3.57010 | 1980 ft | 1 kts | 179° |
| 2026-05-08 06:29 | 40.49629 | -3.57010 | 1982 ft | 3 kts | 179° |
| 2026-05-08 06:29 | 40.49589 | -3.57009 | 1980 ft | 8 kts | 179° |
| 2026-05-08 06:29 | 40.49517 | -3.57008 | 1980 ft | 13 kts | 179° |
| 2026-05-08 06:30 | 40.49416 | -3.57008 | 1980 ft | 16 kts | 180° |
| 2026-05-08 06:30 | 40.49319 | -3.57016 | 1981 ft | 14 kts | 204° |
| 2026-05-08 06:30 | 40.49290 | -3.57127 | 1980 ft | 14 kts | 270° |
| 2026-05-08 06:30 | 40.49247 | -3.57230 | 1982 ft | 14 kts | 197° |
| 2026-05-08 06:31 | 40.49184 | -3.57313 | 1981 ft | 14 kts | 261° |
| 2026-05-08 06:31 | 40.49197 | -3.57442 | 1982 ft | 15 kts | 313° |
| 2026-05-08 06:31 | 40.49293 | -3.57465 | 1981 ft | 12 kts | 360° |
| 2026-05-08 06:31 | 40.49396 | -3.57466 | 1983 ft | 27 kts | 360° |
| 2026-05-08 06:32 | 40.49789 | -3.57467 | 1982 ft | 87 kts | 360° |
| 2026-05-08 06:32 | 40.50589 | -3.57472 | 1980 ft | 141 kts | 360° |
| 2026-05-08 06:32 | 40.51658 | -3.57471 | 2312 ft | 156 kts | 360° |
| 2026-05-08 06:32 | 40.52749 | -3.57480 | 2867 ft | 165 kts | 359° |
| 2026-05-08 06:33 | 40.53946 | -3.57492 | 3322 ft | 179 kts | 359° |
| 2026-05-08 06:33 | 40.55242 | -3.57435 | 3785 ft | 194 kts | 10° |
| 2026-05-08 06:33 | 40.56610 | -3.57004 | 4341 ft | 210 kts | 16° |
| 2026-05-08 06:33 | 40.58069 | -3.56412 | 4933 ft | 230 kts | 18° |
| 2026-05-08 06:34 | 40.59609 | -3.55781 | 5896 ft | 235 kts | 18° |
| 2026-05-08 06:34 | 40.61195 | -3.55163 | 6847 ft | 241 kts | 17° |
| 2026-05-08 06:34 | 40.62827 | -3.54553 | 7770 ft | 247 kts | 17° |
| 2026-05-08 06:34 | 40.64540 | -3.54179 | 8676 ft | 252 kts | 5° |
| 2026-05-08 06:35 | 40.66315 | -3.54014 | 9572 ft | 258 kts | 4° |
| 2026-05-08 06:35 | 40.68127 | -3.53850 | 10487 ft | 263 kts | 6° |
| 2026-05-08 06:35 | 40.69887 | -3.53193 | 11347 ft | 265 kts | 28° |
| 2026-05-08 06:35 | 40.71375 | -3.51710 | 11999 ft | 277 kts | 51° |
| 2026-05-08 06:36 | 40.72529 | -3.49605 | 12559 ft | 292 kts | 57° |
| 2026-05-08 06:36 | 40.73692 | -3.47321 | 13063 ft | 308 kts | 57° |
| 2026-05-08 06:36 | 40.74914 | -3.44896 | 13530 ft | 326 kts | 57° |
| 2026-05-08 06:36 | 40.76218 | -3.42349 | 14006 ft | 344 kts | 57° |
| 2026-05-08 06:37 | 40.77600 | -3.39691 | 14547 ft | 357 kts | 56° |
| 2026-05-08 06:37 | 40.79004 | -3.37005 | 15280 ft | 364 kts | 56° |
| 2026-05-08 06:37 | 40.80447 | -3.34234 | 16048 ft | 369 kts | 56° |
| 2026-05-08 06:37 | 40.81905 | -3.31414 | 16814 ft | 374 kts | 57° |
| 2026-05-08 06:38 | 40.83378 | -3.28556 | 17564 ft | 379 kts | 57° |
| 2026-05-08 06:38 | 40.84825 | -3.25621 | 18277 ft | 383 kts | 63° |
| 2026-05-08 06:38 | 40.85836 | -3.22365 | 19011 ft | 386 kts | 75° |
| 2026-05-08 06:38 | 40.86548 | -3.18927 | 19688 ft | 391 kts | 76° |
| 2026-05-08 06:39 | 40.87238 | -3.15436 | 20365 ft | 395 kts | 77° |
| 2026-05-08 06:39 | 40.87919 | -3.11898 | 21030 ft | 400 kts | 77° |
| 2026-05-08 06:39 | 40.88610 | -3.08322 | 21673 ft | 404 kts | 77° |
| 2026-05-08 06:39 | 40.89319 | -3.04710 | 22291 ft | 408 kts | 77° |
| 2026-05-08 06:40 | 40.90041 | -3.01063 | 22888 ft | 412 kts | 77° |
| 2026-05-08 06:40 | 40.90768 | -2.97378 | 23468 ft | 416 kts | 77° |
| 2026-05-08 06:40 | 40.91497 | -2.93661 | 24024 ft | 420 kts | 77° |
| 2026-05-08 06:40 | 40.92229 | -2.89902 | 24559 ft | 424 kts | 77° |
| 2026-05-08 06:41 | 40.92967 | -2.86106 | 25077 ft | 428 kts | 77° |
| 2026-05-08 06:41 | 40.93701 | -2.82326 | 25576 ft | 431 kts | 77° |
| 2026-05-08 06:41 | 40.94449 | -2.78472 | 26045 ft | 434 kts | 77° |
| 2026-05-08 06:41 | 40.95203 | -2.74588 | 26515 ft | 438 kts | 77° |
| 2026-05-08 06:42 | 40.95960 | -2.70678 | 26965 ft | 441 kts | 77° |
| 2026-05-08 06:42 | 40.96719 | -2.66736 | 27385 ft | 444 kts | 77° |
| 2026-05-08 06:42 | 40.97483 | -2.62768 | 27789 ft | 447 kts | 77° |
| 2026-05-08 06:42 | 40.98251 | -2.58771 | 28184 ft | 450 kts | 77° |
| 2026-05-08 06:43 | 40.99023 | -2.54746 | 28570 ft | 453 kts | 77° |
| 2026-05-08 06:43 | 40.99797 | -2.50696 | 28935 ft | 455 kts | 77° |
| 2026-05-08 06:43 | 41.00573 | -2.46625 | 29284 ft | 458 kts | 77° |
| 2026-05-08 06:43 | 41.01352 | -2.42520 | 29624 ft | 460 kts | 77° |
| 2026-05-08 06:44 | 41.02134 | -2.38400 | 29951 ft | 463 kts | 77° |
| 2026-05-08 06:44 | 41.02926 | -2.34225 | 30043 ft | 471 kts | 77° |
| 2026-05-08 06:44 | 41.03727 | -2.30003 | 30332 ft | 474 kts | 77° |
| 2026-05-08 06:44 | 41.04531 | -2.25767 | 30682 ft | 474 kts | 77° |
| 2026-05-08 06:45 | 41.05333 | -2.21527 | 31056 ft | 474 kts | 77° |
| 2026-05-08 06:45 | 41.06131 | -2.17286 | 31444 ft | 474 kts | 77° |
| 2026-05-08 06:45 | 41.06926 | -2.13048 | 31808 ft | 474 kts | 77° |
| 2026-05-08 06:45 | 41.07718 | -2.08817 | 32168 ft | 473 kts | 77° |
| 2026-05-08 06:46 | 41.08512 | -2.04577 | 32516 ft | 473 kts | 77° |
| 2026-05-08 06:46 | 41.09303 | -2.00343 | 32879 ft | 473 kts | 77° |
| 2026-05-08 06:46 | 41.10092 | -1.96103 | 33230 ft | 473 kts | 77° |
| 2026-05-08 06:46 | 41.10875 | -1.91873 | 33539 ft | 473 kts | 77° |
| 2026-05-08 06:47 | 41.11659 | -1.87634 | 33853 ft | 473 kts | 77° |
| 2026-05-08 06:47 | 41.12432 | -1.83450 | 34189 ft | 473 kts | 77° |
| 2026-05-08 06:47 | 41.13223 | -1.79160 | 34509 ft | 472 kts | 77° |
| 2026-05-08 06:47 | 41.13991 | -1.74983 | 34819 ft | 472 kts | 77° |
| 2026-05-08 06:48 | 41.14767 | -1.70750 | 35133 ft | 472 kts | 77° |
| 2026-05-08 06:48 | 41.15541 | -1.66522 | 35439 ft | 472 kts | 78° |
| 2026-05-08 06:48 | 41.16314 | -1.62292 | 35739 ft | 472 kts | 78° |
| 2026-05-08 06:48 | 41.17086 | -1.58059 | 36029 ft | 472 kts | 78° |
| 2026-05-08 06:49 | 41.17856 | -1.53824 | 36337 ft | 471 kts | 78° |
| 2026-05-08 06:49 | 41.18621 | -1.49595 | 36586 ft | 472 kts | 78° |
| 2026-05-08 06:49 | 41.19385 | -1.45370 | 36938 ft | 469 kts | 78° |
| 2026-05-08 06:49 | 41.20144 | -1.41174 | 37389 ft | 464 kts | 78° |
| 2026-05-08 06:50 | 41.20893 | -1.37031 | 37778 ft | 460 kts | 78° |
| 2026-05-08 06:50 | 41.21637 | -1.32904 | 38028 ft | 460 kts | 78° |
| 2026-05-08 06:50 | 41.23132 | -1.24562 | 38028 ft | 466 kts | 78° |
| 2026-05-08 06:51 | 41.24619 | -1.16243 | 38021 ft | 459 kts | 78° |
| 2026-05-08 06:51 | 41.26083 | -1.08001 | 38026 ft | 458 kts | 78° |
| 2026-05-08 06:52 | 41.27533 | -0.99810 | 38022 ft | 458 kts | 78° |
| 2026-05-08 06:52 | 41.28986 | -0.91562 | 38016 ft | 458 kts | 78° |
| 2026-05-08 06:53 | 41.30432 | -0.83322 | 38016 ft | 458 kts | 79° |
| 2026-05-08 06:53 | 41.31873 | -0.75068 | 38011 ft | 458 kts | 79° |
| 2026-05-08 06:54 | 41.33309 | -0.66804 | 38014 ft | 458 kts | 79° |
| 2026-05-08 06:54 | 41.34737 | -0.58544 | 38013 ft | 458 kts | 79° |
| 2026-05-08 06:55 | 41.35363 | -0.50189 | 38033 ft | 453 kts | 92° |
| 2026-05-08 06:55 | 41.35320 | -0.41838 | 38020 ft | 454 kts | 94° |
| 2026-05-08 06:56 | 41.35234 | -0.33442 | 38019 ft | 453 kts | 93° |
| 2026-05-08 06:56 | 41.35171 | -0.25053 | 38018 ft | 453 kts | 93° |
| 2026-05-08 06:57 | 41.35099 | -0.16662 | 38015 ft | 454 kts | 94° |
| 2026-05-08 06:57 | 41.35013 | -0.08260 | 38011 ft | 453 kts | 94° |
| 2026-05-08 06:58 | 41.34927 | 0.00130 | 38012 ft | 453 kts | 94° |
| 2026-05-08 06:58 | 41.34833 | 0.08535 | 38009 ft | 456 kts | 93° |
| 2026-05-08 06:59 | 41.34728 | 0.17001 | 38015 ft | 463 kts | 92° |
| 2026-05-08 06:59 | 41.34622 | 0.25606 | 38009 ft | 467 kts | 92° |
| 2026-05-08 07:00 | 41.34508 | 0.34258 | 38010 ft | 467 kts | 92° |
| 2026-05-08 07:00 | 41.34385 | 0.42871 | 38007 ft | 464 kts | 92° |
| 2026-05-08 07:01 | 41.34255 | 0.51455 | 38009 ft | 463 kts | 92° |
| 2026-05-08 07:01 | 41.34121 | 0.60027 | 38010 ft | 464 kts | 92° |
| 2026-05-08 07:02 | 41.33982 | 0.68620 | 38012 ft | 464 kts | 92° |
| 2026-05-08 07:02 | 41.33833 | 0.77215 | 38006 ft | 465 kts | 92° |
| 2026-05-08 07:03 | 41.33679 | 0.85810 | 37999 ft | 464 kts | 92° |
| 2026-05-08 07:03 | 41.33519 | 0.94395 | 38003 ft | 465 kts | 92° |
| 2026-05-08 07:04 | 41.33352 | 1.03005 | 37994 ft | 466 kts | 92° |
| 2026-05-08 07:04 | 41.33178 | 1.11612 | 37988 ft | 465 kts | 92° |
| 2026-05-08 07:05 | 41.32999 | 1.20214 | 37990 ft | 466 kts | 92° |
| 2026-05-08 07:05 | 41.32814 | 1.28830 | 37988 ft | 466 kts | 92° |
| 2026-05-08 07:06 | 41.32621 | 1.37443 | 37988 ft | 466 kts | 92° |
| 2026-05-08 07:06 | 41.32423 | 1.46000 | 38003 ft | 466 kts | 93° |
| 2026-05-08 07:07 | 41.32218 | 1.54624 | 38012 ft | 466 kts | 93° |
| 2026-05-08 07:07 | 41.32004 | 1.63247 | 38013 ft | 467 kts | 93° |
| 2026-05-08 07:08 | 41.31785 | 1.71886 | 38016 ft | 467 kts | 93° |
| 2026-05-08 07:08 | 41.31561 | 1.80522 | 38016 ft | 467 kts | 93° |
| 2026-05-08 07:09 | 41.31327 | 1.89155 | 38017 ft | 467 kts | 93° |
| 2026-05-08 07:09 | 41.31087 | 1.97788 | 38002 ft | 466 kts | 93° |
| 2026-05-08 07:10 | 41.30872 | 2.06411 | 37997 ft | 467 kts | 88° |
| 2026-05-08 07:10 | 41.31228 | 2.10709 | 38011 ft | 468 kts | 77° |
| 2026-05-08 07:10 | 41.32158 | 2.14849 | 38022 ft | 467 kts | 66° |
| 2026-05-08 07:11 | 41.34846 | 2.22727 | 38008 ft | 468 kts | 63° |
| 2026-05-08 07:11 | 41.37584 | 2.30497 | 38004 ft | 466 kts | 63° |
| 2026-05-08 07:12 | 41.40289 | 2.38333 | 38003 ft | 465 kts | 64° |
| 2026-05-08 07:12 | 41.42985 | 2.46175 | 38004 ft | 466 kts | 63° |
| 2026-05-08 07:13 | 41.45694 | 2.54022 | 38004 ft | 466 kts | 64° |
| 2026-05-08 07:13 | 41.48393 | 2.61891 | 38003 ft | 466 kts | 64° |
| 2026-05-08 07:14 | 41.51081 | 2.69754 | 38003 ft | 466 kts | 64° |
| 2026-05-08 07:14 | 41.53316 | 2.76294 | 38004 ft | 466 kts | 64° |
| 2026-05-08 07:15 | 41.55998 | 2.84174 | 38003 ft | 466 kts | 64° |
| 2026-05-08 07:15 | 41.58677 | 2.92067 | 38003 ft | 467 kts | 64° |
| 2026-05-08 07:16 | 41.61348 | 2.99958 | 38003 ft | 466 kts | 64° |
| 2026-05-08 07:16 | 41.64015 | 3.07858 | 38004 ft | 467 kts | 64° |
| 2026-05-08 07:17 | 41.66678 | 3.15777 | 38003 ft | 467 kts | 64° |
| 2026-05-08 07:17 | 41.69335 | 3.23692 | 38010 ft | 466 kts | 64° |
| 2026-05-08 07:18 | 41.71987 | 3.31616 | 38013 ft | 466 kts | 64° |
| 2026-05-08 07:18 | 41.74616 | 3.39495 | 38010 ft | 466 kts | 64° |
| 2026-05-08 07:19 | 41.77277 | 3.47488 | 38012 ft | 467 kts | 64° |
| 2026-05-08 07:19 | 41.79897 | 3.55386 | 38012 ft | 466 kts | 64° |
| 2026-05-08 07:20 | 41.82528 | 3.63336 | 38012 ft | 466 kts | 64° |
| 2026-05-08 07:20 | 41.85158 | 3.71310 | 38014 ft | 468 kts | 64° |
| 2026-05-08 07:21 | 41.87782 | 3.79291 | 38011 ft | 467 kts | 64° |
| 2026-05-08 07:21 | 41.90394 | 3.87259 | 38014 ft | 466 kts | 64° |
| 2026-05-08 07:22 | 41.93000 | 3.95228 | 38013 ft | 467 kts | 64° |
| 2026-05-08 07:22 | 41.95605 | 4.03215 | 38014 ft | 466 kts | 64° |
| 2026-05-08 07:23 | 41.98201 | 4.11207 | 38012 ft | 467 kts | 64° |
| 2026-05-08 07:23 | 42.00792 | 4.19205 | 38012 ft | 466 kts | 64° |
| 2026-05-08 07:24 | 42.03377 | 4.27206 | 38012 ft | 466 kts | 64° |
| 2026-05-08 07:24 | 42.05952 | 4.35207 | 38022 ft | 466 kts | 65° |
| 2026-05-08 07:25 | 42.09198 | 4.42650 | 38045 ft | 459 kts | 46° |
| 2026-05-08 07:26 | 42.16176 | 4.51379 | 38035 ft | 456 kts | 38° |
| 2026-05-08 07:26 | 42.20922 | 4.57052 | 38031 ft | 456 kts | 39° |
| 2026-05-08 07:27 | 42.25646 | 4.62771 | 38031 ft | 456 kts | 39° |
| 2026-05-08 07:27 | 42.30359 | 4.68480 | 38031 ft | 455 kts | 39° |
| 2026-05-08 07:28 | 42.35076 | 4.74190 | 38033 ft | 455 kts | 39° |
| 2026-05-08 07:28 | 42.39790 | 4.79919 | 38030 ft | 455 kts | 39° |
| 2026-05-08 07:29 | 42.44494 | 4.85647 | 38028 ft | 455 kts | 39° |
| 2026-05-08 07:29 | 42.49198 | 4.91387 | 38030 ft | 455 kts | 39° |
| 2026-05-08 07:30 | 42.53916 | 4.97086 | 38030 ft | 453 kts | 35° |
| 2026-05-08 07:30 | 42.56537 | 4.99414 | 38042 ft | 449 kts | 24° |
| 2026-05-08 07:30 | 42.59356 | 5.01044 | 38051 ft | 445 kts | 14° |
| 2026-05-08 07:31 | 42.65290 | 5.03431 | 38038 ft | 445 kts | 13° |
| 2026-05-08 07:31 | 42.71249 | 5.05753 | 38032 ft | 445 kts | 13° |
| 2026-05-08 07:32 | 42.77189 | 5.08122 | 38031 ft | 445 kts | 13° |
| 2026-05-08 07:32 | 42.80162 | 5.09312 | 37787 ft | 449 kts | 13° |
| 2026-05-08 07:32 | 42.83201 | 5.10521 | 36976 ft | 457 kts | 13° |
| 2026-05-08 07:32 | 42.86270 | 5.11740 | 36199 ft | 461 kts | 13° |
| 2026-05-08 07:33 | 42.89364 | 5.12972 | 35399 ft | 466 kts | 13° |
| 2026-05-08 07:33 | 42.92494 | 5.14223 | 34586 ft | 471 kts | 13° |
| 2026-05-08 07:33 | 42.95655 | 5.15490 | 33706 ft | 473 kts | 13° |
| 2026-05-08 07:33 | 42.98801 | 5.16753 | 32852 ft | 470 kts | 13° |
| 2026-05-08 07:34 | 43.01903 | 5.17999 | 32311 ft | 460 kts | 14° |
| 2026-05-08 07:34 | 43.04949 | 5.19227 | 31749 ft | 452 kts | 14° |
| 2026-05-08 07:34 | 43.07943 | 5.20446 | 31179 ft | 446 kts | 14° |
| 2026-05-08 07:34 | 43.10891 | 5.21652 | 30618 ft | 440 kts | 15° |
| 2026-05-08 07:35 | 43.13820 | 5.22850 | 30053 ft | 437 kts | 15° |
| 2026-05-08 07:35 | 43.16728 | 5.24036 | 29470 ft | 435 kts | 15° |
| 2026-05-08 07:35 | 43.19586 | 5.25202 | 28898 ft | 433 kts | 15° |
| 2026-05-08 07:35 | 43.22470 | 5.26380 | 28311 ft | 430 kts | 15° |
| 2026-05-08 07:36 | 43.25329 | 5.27550 | 27719 ft | 428 kts | 15° |
| 2026-05-08 07:36 | 43.28175 | 5.28717 | 27132 ft | 426 kts | 15° |
| 2026-05-08 07:36 | 43.31006 | 5.29880 | 26535 ft | 424 kts | 15° |
| 2026-05-08 07:36 | 43.33821 | 5.31036 | 25941 ft | 421 kts | 15° |
| 2026-05-08 07:37 | 43.36609 | 5.32227 | 25349 ft | 418 kts | 20° |
| 2026-05-08 07:37 | 43.39209 | 5.33999 | 24792 ft | 416 kts | 32° |
| 2026-05-08 07:37 | 43.41641 | 5.36132 | 24175 ft | 412 kts | 32° |
| 2026-05-08 07:37 | 43.44032 | 5.38278 | 23564 ft | 408 kts | 33° |
| 2026-05-08 07:38 | 43.46385 | 5.40424 | 22969 ft | 404 kts | 33° |
| 2026-05-08 07:38 | 43.48604 | 5.42740 | 22381 ft | 398 kts | 43° |
| 2026-05-08 07:38 | 43.50370 | 5.45634 | 21841 ft | 392 kts | 57° |
| 2026-05-08 07:38 | 43.51579 | 5.48942 | 21420 ft | 382 kts | 68° |
| 2026-05-08 07:39 | 43.52548 | 5.52265 | 20999 ft | 375 kts | 69° |
| 2026-05-08 07:39 | 43.53491 | 5.55643 | 20589 ft | 371 kts | 69° |
| 2026-05-08 07:39 | 43.54400 | 5.58961 | 20169 ft | 369 kts | 69° |
| 2026-05-08 07:39 | 43.55298 | 5.62217 | 19759 ft | 367 kts | 69° |
| 2026-05-08 07:40 | 43.56214 | 5.65488 | 19356 ft | 365 kts | 70° |
| 2026-05-08 07:40 | 43.56847 | 5.68848 | 18960 ft | 361 kts | 83° |
| 2026-05-08 07:40 | 43.57113 | 5.72278 | 18562 ft | 359 kts | 85° |
| 2026-05-08 07:40 | 43.57349 | 5.75697 | 18160 ft | 357 kts | 85° |
| 2026-05-08 07:41 | 43.57568 | 5.79102 | 17763 ft | 356 kts | 85° |
| 2026-05-08 07:41 | 43.57784 | 5.82493 | 17381 ft | 353 kts | 85° |
| 2026-05-08 07:41 | 43.58004 | 5.85852 | 16972 ft | 350 kts | 85° |
| 2026-05-08 07:41 | 43.58225 | 5.89182 | 16594 ft | 347 kts | 85° |
| 2026-05-08 07:42 | 43.58444 | 5.92484 | 16208 ft | 344 kts | 85° |
| 2026-05-08 07:42 | 43.58660 | 5.95761 | 15834 ft | 342 kts | 85° |
| 2026-05-08 07:42 | 43.58871 | 5.99020 | 15458 ft | 340 kts | 85° |
| 2026-05-08 07:42 | 43.59079 | 6.02261 | 15087 ft | 338 kts | 85° |
| 2026-05-08 07:43 | 43.59285 | 6.05481 | 14712 ft | 336 kts | 85° |
| 2026-05-08 07:43 | 43.59426 | 6.08689 | 14345 ft | 333 kts | 92° |
| 2026-05-08 07:43 | 43.59072 | 6.11834 | 14005 ft | 332 kts | 107° |
| 2026-05-08 07:43 | 43.58318 | 6.14782 | 13624 ft | 330 kts | 110° |
| 2026-05-08 07:44 | 43.57511 | 6.17736 | 13250 ft | 328 kts | 111° |
| 2026-05-08 07:44 | 43.56696 | 6.20658 | 12889 ft | 325 kts | 111° |
| 2026-05-08 07:44 | 43.55888 | 6.23553 | 12523 ft | 322 kts | 111° |
| 2026-05-08 07:44 | 43.55091 | 6.26433 | 12174 ft | 321 kts | 111° |
| 2026-05-08 07:45 | 43.54303 | 6.29299 | 11812 ft | 319 kts | 111° |
| 2026-05-08 07:45 | 43.53518 | 6.32149 | 11465 ft | 317 kts | 111° |
| 2026-05-08 07:45 | 43.52733 | 6.34987 | 11122 ft | 316 kts | 111° |
| 2026-05-08 07:45 | 43.51948 | 6.37816 | 10764 ft | 315 kts | 111° |
| 2026-05-08 07:46 | 43.51168 | 6.40629 | 10413 ft | 314 kts | 111° |
| 2026-05-08 07:46 | 43.50262 | 6.43306 | 10278 ft | 301 kts | 122° |
| 2026-05-08 07:46 | 43.48966 | 6.45486 | 10170 ft | 288 kts | 133° |
| 2026-05-08 07:46 | 43.47613 | 6.47471 | 10030 ft | 281 kts | 133° |
| 2026-05-08 07:47 | 43.46260 | 6.49421 | 9740 ft | 282 kts | 133° |
| 2026-05-08 07:47 | 43.44909 | 6.51356 | 9435 ft | 279 kts | 133° |
| 2026-05-08 07:47 | 43.43573 | 6.53272 | 9137 ft | 276 kts | 133° |
| 2026-05-08 07:47 | 43.42255 | 6.55167 | 8848 ft | 273 kts | 133° |
| 2026-05-08 07:48 | 43.40944 | 6.57056 | 8552 ft | 272 kts | 133° |
| 2026-05-08 07:48 | 43.39723 | 6.59016 | 8269 ft | 270 kts | 121° |
| 2026-05-08 07:48 | 43.39057 | 6.61406 | 7999 ft | 269 kts | 99° |
| 2026-05-08 07:48 | 43.39126 | 6.63954 | 7623 ft | 268 kts | 76° |
| 2026-05-08 07:49 | 43.39605 | 6.66438 | 7225 ft | 269 kts | 74° |
| 2026-05-08 07:49 | 43.40122 | 6.68908 | 6866 ft | 269 kts | 73° |
| 2026-05-08 07:49 | 43.40631 | 6.71318 | 6601 ft | 261 kts | 74° |
| 2026-05-08 07:49 | 43.41116 | 6.73661 | 6286 ft | 249 kts | 74° |
| 2026-05-08 07:50 | 43.41571 | 6.75906 | 5983 ft | 238 kts | 74° |
| 2026-05-08 07:50 | 43.42004 | 6.78059 | 5679 ft | 230 kts | 74° |
| 2026-05-08 07:50 | 43.42423 | 6.80140 | 5402 ft | 222 kts | 74° |
| 2026-05-08 07:50 | 43.42834 | 6.82175 | 5107 ft | 219 kts | 74° |
| 2026-05-08 07:51 | 43.43239 | 6.84180 | 4830 ft | 217 kts | 74° |
| 2026-05-08 07:51 | 43.43640 | 6.86169 | 4528 ft | 215 kts | 74° |
| 2026-05-08 07:51 | 43.44037 | 6.88147 | 4248 ft | 213 kts | 74° |
| 2026-05-08 07:51 | 43.44426 | 6.90080 | 4022 ft | 205 kts | 74° |
| 2026-05-08 07:52 | 43.44801 | 6.91940 | 4019 ft | 200 kts | 74° |
| 2026-05-08 07:52 | 43.45169 | 6.93765 | 4000 ft | 197 kts | 74° |
| 2026-05-08 07:52 | 43.45538 | 6.95568 | 4004 ft | 194 kts | 71° |
| 2026-05-08 07:52 | 43.46304 | 6.97045 | 4010 ft | 193 kts | 44° |
| 2026-05-08 07:53 | 43.47334 | 6.98243 | 3998 ft | 192 kts | 40° |
| 2026-05-08 07:53 | 43.48348 | 6.99429 | 4001 ft | 192 kts | 38° |
| 2026-05-08 07:53 | 43.49418 | 7.00516 | 3992 ft | 192 kts | 38° |
| 2026-05-08 07:53 | 43.50447 | 7.01718 | 3781 ft | 193 kts | 41° |
| 2026-05-08 07:54 | 43.51424 | 7.02953 | 3546 ft | 190 kts | 43° |
| 2026-05-08 07:54 | 43.52387 | 7.04193 | 3299 ft | 188 kts | 43° |
| 2026-05-08 07:54 | 43.53319 | 7.05401 | 3052 ft | 179 kts | 43° |
| 2026-05-08 07:54 | 43.54208 | 7.06552 | 2823 ft | 173 kts | 43° |
| 2026-05-08 07:55 | 43.55075 | 7.07677 | 2590 ft | 169 kts | 43° |
| 2026-05-08 07:55 | 43.55922 | 7.08779 | 2373 ft | 167 kts | 43° |
| 2026-05-08 07:55 | 43.56763 | 7.09871 | 2149 ft | 165 kts | 44° |
| 2026-05-08 07:55 | 43.57591 | 7.10946 | 1954 ft | 161 kts | 43° |
| 2026-05-08 07:56 | 43.58389 | 7.11982 | 1729 ft | 155 kts | 42° |
| 2026-05-08 07:56 | 43.59158 | 7.12965 | 1513 ft | 152 kts | 41° |
| 2026-05-08 07:56 | 43.59923 | 7.13960 | 1272 ft | 147 kts | 43° |
| 2026-05-08 07:56 | 43.60669 | 7.14893 | 1047 ft | 147 kts | 39° |
| 2026-05-08 07:57 | 43.61421 | 7.15839 | 808 ft | 145 kts | 43° |
| 2026-05-08 07:57 | 43.62132 | 7.16809 | 645 ft | 144 kts | 43° |
| 2026-05-08 07:57 | 43.62861 | 7.17774 | 518 ft | 145 kts | 43° |
| 2026-05-08 07:57 | 43.63585 | 7.18765 | 356 ft | 147 kts | 43° |
| 2026-05-08 07:58 | 43.64317 | 7.19763 | 164 ft | 148 kts | 44° |
| 2026-05-08 07:58 | 43.65047 | 7.20760 | 30 ft | 145 kts | 44° |
| 2026-05-08 07:58 | 43.65642 | 7.21577 | 23 ft | 88 kts | 44° |
| 2026-05-08 07:58 | 43.65936 | 7.21980 | 23 ft | 40 kts | 41° |
| 2026-05-08 07:59 | 43.66163 | 7.22127 | 22 ft | 24 kts | 14° |
| 2026-05-08 07:59 | 43.66300 | 7.22175 | 22 ft | 20 kts | 15° |
| 2026-05-08 07:59 | 43.66387 | 7.22200 | 22 ft | 19 kts | 356° |
| 2026-05-08 07:59 | 43.66521 | 7.22072 | 21 ft | 18 kts | 314° |
| 2026-05-08 08:00 | 43.66611 | 7.21954 | 21 ft | 17 kts | 317° |
| 2026-05-08 08:00 | 43.66615 | 7.21818 | 23 ft | 16 kts | 230° |
| 2026-05-08 08:00 | 43.66531 | 7.21699 | 21 ft | 19 kts | 225° |
| 2026-05-08 08:00 | 43.66467 | 7.21613 | 21 ft | 20 kts | 225° |
| 2026-05-08 08:01 | 43.66367 | 7.21470 | 21 ft | 21 kts | 239° |
| 2026-05-08 08:01 | 43.66339 | 7.21284 | 21 ft | 18 kts | 260° |
| 2026-05-08 08:01 | 43.66314 | 7.21116 | 21 ft | 18 kts | 258° |
| 2026-05-08 08:01 | 43.66305 | 7.20950 | 21 ft | 17 kts | 281° |
| 2026-05-08 08:02 | 43.66301 | 7.20792 | 24 ft | 16 kts | 238° |
| 2026-05-08 08:02 | 43.66201 | 7.20777 | 21 ft | 13 kts | 171° |
| 2026-05-08 08:02 | 43.66128 | 7.20761 | 23 ft | 9 kts | 245° |
| 2026-05-08 08:02 | 43.66120 | 7.20698 | 21 ft | 4 kts | 263° |
| 2026-05-08 08:03 | 43.66119 | 7.20688 | 21 ft | 0 kts | 262° |